createdAt,value
2023-01-06T00:00:31.080Z,101511.75
2023-01-06T00:01:45.191Z,101510.88
2023-01-06T00:02:50.433Z,101503.91
2023-01-06T00:04:00.070Z,101513.69
2023-01-06T00:05:09.340Z,101497.72
2023-01-06T00:06:16.501Z,101506.56
2023-01-06T00:07:28.040Z,101510.16
2023-01-06T00:08:40.932Z,101510.16
2023-01-06T00:09:42.501Z,101506.66
2023-01-06T00:10:44.997Z,101505.81
2023-01-06T00:11:47.496Z,101507.59
2023-01-06T00:12:49.710Z,101504.94
2023-01-06T00:13:52.493Z,101507.59
2023-01-06T00:14:55.549Z,101508.59
2023-01-06T00:15:58.086Z,101501.47
2023-01-06T00:16:59.703Z,101508.59
2023-01-06T00:18:02.199Z,101505.06
2023-01-06T00:19:04.792Z,101502.41
2023-01-06T00:20:16.497Z,101497.94
2023-01-06T00:21:22.184Z,101497.09
2023-01-06T00:22:25.597Z,101496.25
2023-01-06T00:23:38.885Z,101504.22
2023-01-06T00:24:43.229Z,101497.94
2023-01-06T00:25:51.285Z,101501.56
2023-01-06T00:26:53.296Z,101501.56
2023-01-06T00:27:56.466Z,101498.81
2023-01-06T00:28:58.779Z,101493.50
2023-01-06T00:30:13.932Z,101496.00
2023-01-06T00:31:17.091Z,101496.00
2023-01-06T00:32:19.864Z,101498.69
2023-01-06T00:33:21.491Z,101496.00
2023-01-06T00:34:24.474Z,101496.75
2023-01-06T00:35:26.516Z,101492.41
2023-01-06T00:36:29.104Z,101496.75
2023-01-06T00:37:30.669Z,101492.28
2023-01-06T00:38:36.119Z,101491.31
2023-01-06T00:39:38.696Z,101484.19
2023-01-06T00:40:41.148Z,101486.84
2023-01-06T00:42:06.714Z,101489.38
2023-01-06T00:43:09.750Z,101489.50
2023-01-06T00:44:11.817Z,101480.69
2023-01-06T00:45:15.892Z,101485.13
2023-01-06T00:46:29.107Z,101478.13
2023-01-06T00:47:32.074Z,101476.31
2023-01-06T00:48:56.630Z,101476.44
2023-01-06T00:50:16.212Z,101471.13
2023-01-06T00:51:18.257Z,101466.66
2023-01-06T00:52:20.727Z,101464.09
2023-01-06T00:53:22.468Z,101467.59
2023-01-06T00:54:26.181Z,101464.94
2023-01-06T00:55:29.713Z,101464.09
2023-01-06T00:56:32.577Z,101461.44
2023-01-06T00:57:35.031Z,101463.25
2023-01-06T00:58:38.396Z,101465.06
2023-01-06T00:59:41.503Z,101465.91
2023-01-06T01:00:45.917Z,101464.09
2023-01-06T01:01:50.586Z,101456.13
2023-01-06T01:02:53.245Z,101465.66
2023-01-06T01:03:55.224Z,101463.00
2023-01-06T01:04:57.750Z,101459.50
2023-01-06T01:05:59.750Z,101464.81
2023-01-06T01:07:02.388Z,101461.19
2023-01-06T01:08:04.231Z,101456.84
2023-01-06T01:09:07.876Z,101458.53
2023-01-06T01:10:11.422Z,101455.88
2023-01-06T01:11:33.862Z,101451.53
2023-01-06T01:12:36.503Z,101458.53
2023-01-06T01:13:39.507Z,101447.06
2023-01-06T01:14:46.816Z,101446.19
2023-01-06T01:15:51.087Z,101455.16
2023-01-06T01:17:03.609Z,101452.50
2023-01-06T01:18:06.244Z,101456.97
2023-01-06T01:19:08.620Z,101446.44
2023-01-06T01:20:11.823Z,101457.81
2023-01-06T01:21:13.332Z,101460.47
2023-01-06T01:22:16.008Z,101463.16
2023-01-06T01:23:17.548Z,101460.47
2023-01-06T01:24:20.566Z,101456.84
2023-01-06T01:25:22.144Z,101461.19
2023-01-06T01:26:24.745Z,101464.81
2023-01-06T01:27:27.238Z,101459.50
2023-01-06T01:28:28.882Z,101462.16
2023-01-06T01:29:31.538Z,101458.69
2023-01-06T01:30:33.044Z,101456.13
2023-01-06T01:31:45.817Z,101464.94
2023-01-06T01:32:48.353Z,101459.63
2023-01-06T01:34:01.872Z,101465.81
2023-01-06T01:35:07.034Z,101464.94
2023-01-06T01:36:19.278Z,101460.47
2023-01-06T01:37:25.853Z,101469.41
2023-01-06T01:38:28.491Z,101462.28
2023-01-06T01:39:32.940Z,101464.00
2023-01-06T01:40:35.480Z,101469.41
2023-01-06T01:41:41.361Z,101474.75
2023-01-06T01:42:43.961Z,101463.16
2023-01-06T01:43:47.477Z,101471.13
2023-01-06T01:45:03.286Z,101474.75
2023-01-06T01:46:18.582Z,101465.81
2023-01-06T01:47:39.990Z,101466.75
2023-01-06T01:48:41.609Z,101462.38
2023-01-06T01:49:46.841Z,101456.25
2023-01-06T01:50:52.813Z,101467.72
2023-01-06T01:51:57.805Z,101465.91
2023-01-06T01:53:04.874Z,101457.94
2023-01-06T01:54:10.751Z,101452.59
2023-01-06T01:55:24.783Z,101455.25
2023-01-06T01:56:42.746Z,101451.88
2023-01-06T01:57:49.428Z,101450.06
2023-01-06T01:58:55.617Z,101446.66
2023-01-06T01:59:59.596Z,101448.59
2023-01-06T02:01:02.594Z,101451.97
2023-01-06T02:02:04.743Z,101446.66
2023-01-06T02:03:11.403Z,101445.72
2023-01-06T02:04:17.372Z,101451.03
2023-01-06T02:05:31.192Z,101451.97
2023-01-06T02:06:33.189Z,101449.31
2023-01-06T02:07:35.848Z,101448.47
2023-01-06T02:08:53.803Z,101445.00
2023-01-06T02:10:03.350Z,101445.00
2023-01-06T02:11:13.063Z,101445.00
2023-01-06T02:12:15.095Z,101445.00
2023-01-06T02:13:17.722Z,101439.69
2023-01-06T02:14:22.584Z,101450.31
2023-01-06T02:15:28.135Z,101446.66
2023-01-06T02:16:41.447Z,101436.03
2023-01-06T02:18:16.830Z,101432.41
2023-01-06T02:19:56.773Z,101428.03
2023-01-06T02:21:24.143Z,101437.00
2023-01-06T02:22:55.952Z,101437.97
2023-01-06T02:24:25.168Z,101437.97
2023-01-06T02:25:57.509Z,101439.69
2023-01-06T02:27:44.876Z,101432.66
2023-01-06T02:29:21.993Z,101437.97
2023-01-06T02:30:40.306Z,101436.25
2023-01-06T02:32:01.049Z,101436.25
2023-01-06T02:33:22.379Z,101431.78
2023-01-06T02:34:45.176Z,101425.63
2023-01-06T02:36:15.936Z,101425.63
2023-01-06T02:37:35.990Z,101420.31
2023-01-06T02:38:58.134Z,101419.44
2023-01-06T02:40:17.216Z,101425.63
2023-01-06T02:41:30.926Z,101419.34
2023-01-06T02:42:42.976Z,101413.06
2023-01-06T02:43:53.293Z,101412.22
2023-01-06T02:45:09.093Z,101423.72
2023-01-06T02:46:23.830Z,101414.75
2023-01-06T02:47:34.373Z,101411.13
2023-01-06T02:48:46.119Z,101408.56
2023-01-06T02:49:59.142Z,101412.09
2023-01-06T02:51:07.377Z,101407.75
2023-01-06T02:52:15.708Z,101406.06
2023-01-06T02:53:23.757Z,101409.44
2023-01-06T02:54:33.102Z,101406.78
2023-01-06T02:55:48.029Z,101401.59
2023-01-06T02:56:54.894Z,101397.13
2023-01-06T02:58:12.153Z,101395.41
2023-01-06T02:59:26.715Z,101396.28
2023-01-06T03:00:34.475Z,101394.47
2023-01-06T03:01:40.643Z,101396.28
2023-01-06T03:02:51.167Z,101395.41
2023-01-06T03:03:53.978Z,101399.03
2023-01-06T03:04:57.857Z,101383.06
2023-01-06T03:06:05.583Z,101386.47
2023-01-06T03:07:10.279Z,101389.25
2023-01-06T03:08:15.453Z,101400.72
2023-01-06T03:09:22.311Z,101389.16
2023-01-06T03:10:27.103Z,101392.63
2023-01-06T03:11:32.840Z,101392.63
2023-01-06T03:12:41.514Z,101398.78
2023-01-06T03:13:50.665Z,101396.97
2023-01-06T03:14:55.421Z,101399.66
2023-01-06T03:15:58.973Z,101404.97
2023-01-06T03:17:08.804Z,101386.47
2023-01-06T03:18:14.986Z,101382.84
2023-01-06T03:19:18.149Z,101383.69
2023-01-06T03:20:22.662Z,101389.00
2023-01-06T03:21:34.678Z,101381.03
2023-01-06T03:22:41.468Z,101375.00
2023-01-06T03:23:49.252Z,101390.81
2023-01-06T03:25:00.998Z,101389.88
2023-01-06T03:26:14.043Z,101387.31
2023-01-06T03:27:18.981Z,101387.31
2023-01-06T03:28:31.480Z,101387.31
2023-01-06T03:29:43.278Z,101383.69
2023-01-06T03:30:56.709Z,101385.50
2023-01-06T03:32:02.707Z,101383.69
2023-01-06T03:33:14.857Z,101375.00
2023-01-06T03:34:26.990Z,101376.66
2023-01-06T03:35:42.603Z,101380.31
2023-01-06T03:36:55.676Z,101374.13
2023-01-06T03:38:04.559Z,101384.78
2023-01-06T03:39:15.395Z,101380.41
2023-01-06T03:40:28.682Z,101377.75
2023-01-06T03:41:55.725Z,101375.94
2023-01-06T03:43:13.403Z,101365.44
2023-01-06T03:44:19.957Z,101364.59
2023-01-06T03:45:36.750Z,101359.28
2023-01-06T03:46:43.022Z,101361.78
2023-01-06T03:47:54.535Z,101356.47
2023-01-06T03:49:05.342Z,101352.88
2023-01-06T03:50:16.455Z,101347.53
2023-01-06T03:51:31.055Z,101352.00
2023-01-06T03:52:40.503Z,101355.53
2023-01-06T03:53:57.115Z,101352.88
2023-01-06T03:55:12.566Z,101352.88
2023-01-06T03:56:29.215Z,101346.81
2023-01-06T03:57:45.252Z,101353.81
2023-01-06T03:58:54.801Z,101354.81
2023-01-06T04:00:02.323Z,101346.81
2023-01-06T04:01:08.828Z,101353.81
2023-01-06T04:02:11.636Z,101349.50
2023-01-06T04:03:14.772Z,101344.16
2023-01-06T04:04:21.216Z,101344.16
2023-01-06T04:05:34.068Z,101345.84
2023-01-06T04:06:38.652Z,101347.66
2023-01-06T04:07:48.677Z,101346.81
2023-01-06T04:08:52.866Z,101344.16
2023-01-06T04:10:05.449Z,101347.78
2023-01-06T04:11:07.908Z,101352.16
2023-01-06T04:12:28.279Z,101354.81
2023-01-06T04:13:29.832Z,101355.63
2023-01-06T04:14:38.032Z,101356.47
2023-01-06T04:15:49.682Z,101345.00
2023-01-06T04:16:56.647Z,101344.88
2023-01-06T04:17:58.327Z,101345.84
2023-01-06T04:19:02.048Z,101346.69
2023-01-06T04:20:04.017Z,101345.75
2023-01-06T04:21:08.008Z,101334.25
2023-01-06T04:22:09.612Z,101334.13
2023-01-06T04:23:22.116Z,101344.88
2023-01-06T04:24:33.663Z,101339.56
2023-01-06T04:25:46.172Z,101335.19
2023-01-06T04:26:48.083Z,101336.91
2023-01-06T04:27:51.124Z,101327.13
2023-01-06T04:28:52.764Z,101334.13
2023-01-06T04:29:55.388Z,101327.97
2023-01-06T04:30:57.948Z,101326.28
2023-01-06T04:32:00.445Z,101323.63
2023-01-06T04:33:03.946Z,101334.25
2023-01-06T04:34:16.428Z,101336.91
2023-01-06T04:35:28.934Z,101333.41
2023-01-06T04:36:42.907Z,101335.19
2023-01-06T04:37:45.041Z,101335.19
2023-01-06T04:38:57.566Z,101339.66
2023-01-06T04:39:59.644Z,101338.72
2023-01-06T04:41:03.021Z,101332.53
2023-01-06T04:42:07.907Z,101331.69
2023-01-06T04:43:20.417Z,101329.88
2023-01-06T04:44:31.957Z,101330.88
2023-01-06T04:45:44.734Z,101329.88
2023-01-06T04:46:46.453Z,101329.88
2023-01-06T04:47:49.338Z,101324.56
2023-01-06T04:48:50.930Z,101327.13
2023-01-06T04:49:53.495Z,101323.63
2023-01-06T04:51:00.908Z,101318.28
2023-01-06T04:52:05.622Z,101313.69
2023-01-06T04:53:07.916Z,101306.69
2023-01-06T04:54:10.520Z,101310.31
2023-01-06T04:55:12.477Z,101310.31
2023-01-06T04:56:15.055Z,101308.59
2023-01-06T04:57:16.562Z,101311.28
2023-01-06T04:58:19.092Z,101317.56
2023-01-06T04:59:31.571Z,101322.91
2023-01-06T05:00:33.284Z,101317.69
2023-01-06T05:01:36.656Z,101330.03
2023-01-06T05:02:38.356Z,101333.53
2023-01-06T05:03:42.295Z,101334.34
2023-01-06T05:04:48.034Z,101328.22
2023-01-06T05:06:03.034Z,101323.72
2023-01-06T05:07:15.931Z,101316.59
2023-01-06T05:08:28.443Z,101310.31
2023-01-06T05:09:31.552Z,101313.94
2023-01-06T05:10:33.928Z,101315.63
2023-01-06T05:11:37.116Z,101312.00
2023-01-06T05:12:38.878Z,101309.34
2023-01-06T05:13:43.320Z,101311.16
2023-01-06T05:14:44.874Z,101312.00
2023-01-06T05:15:47.436Z,101299.69
2023-01-06T05:16:48.983Z,101299.69
2023-01-06T05:17:51.521Z,101305.84
2023-01-06T05:18:54.184Z,101301.38
2023-01-06T05:19:56.858Z,101308.38
2023-01-06T05:20:58.718Z,101305.72
2023-01-06T05:22:01.340Z,101303.06
2023-01-06T05:23:04.220Z,101296.06
2023-01-06T05:24:16.145Z,101299.69
2023-01-06T05:25:18.777Z,101299.69
2023-01-06T05:26:23.524Z,101298.81
2023-01-06T05:27:25.119Z,101297.97
2023-01-06T05:28:29.886Z,101292.66
2023-01-06T05:29:35.858Z,101289.03
2023-01-06T05:30:43.462Z,101293.50
2023-01-06T05:31:56.047Z,101299.78
2023-01-06T05:32:57.741Z,101305.00
2023-01-06T05:34:00.227Z,101303.28
2023-01-06T05:35:01.803Z,101310.31
2023-01-06T05:36:07.545Z,101302.44
2023-01-06T05:37:12.278Z,101303.44
2023-01-06T05:38:25.432Z,101306.94
2023-01-06T05:39:31.620Z,101303.28
2023-01-06T05:40:34.203Z,101306.94
2023-01-06T05:41:36.753Z,101305.94
2023-01-06T05:42:38.272Z,101309.47
2023-01-06T05:43:41.331Z,101305.00
2023-01-06T05:44:44.671Z,101299.69
2023-01-06T05:45:54.305Z,101315.63
2023-01-06T05:46:57.970Z,101309.47
2023-01-06T05:48:02.155Z,101308.59
2023-01-06T05:49:09.742Z,101308.59
2023-01-06T05:50:11.445Z,101302.34
2023-01-06T05:51:17.578Z,101312.97
2023-01-06T05:52:19.096Z,101307.66
2023-01-06T05:53:21.621Z,101312.00
2023-01-06T05:54:25.502Z,101312.84
2023-01-06T05:55:27.448Z,101307.53
2023-01-06T05:56:30.804Z,101310.06
2023-01-06T05:57:32.874Z,101303.06
2023-01-06T05:58:36.629Z,101302.09
2023-01-06T05:59:38.515Z,101310.06
2023-01-06T06:00:41.233Z,101309.22
2023-01-06T06:01:53.257Z,101310.19
2023-01-06T06:03:05.760Z,101304.16
2023-01-06T06:04:17.304Z,101307.66
2023-01-06T06:05:19.913Z,101307.66
2023-01-06T06:06:23.288Z,101304.16
2023-01-06T06:07:25.831Z,101303.28
2023-01-06T06:08:28.964Z,101308.59
2023-01-06T06:09:32.837Z,101299.69
2023-01-06T06:10:34.414Z,101295.31
2023-01-06T06:11:37.016Z,101303.28
2023-01-06T06:12:38.627Z,101292.66
2023-01-06T06:13:46.831Z,101291.69
2023-01-06T06:14:50.003Z,101287.34
2023-01-06T06:15:52.588Z,101296.31
2023-01-06T06:16:55.417Z,101290.13
2023-01-06T06:17:57.937Z,101289.28
2023-01-06T06:18:59.511Z,101282.25
2023-01-06T06:20:03.195Z,101280.56
2023-01-06T06:21:16.791Z,101275.22
2023-01-06T06:22:29.316Z,101282.41
2023-01-06T06:23:32.455Z,101279.00
2023-01-06T06:24:45.558Z,101296.75
2023-01-06T06:25:50.283Z,101286.09
2023-01-06T06:27:02.764Z,101282.75
2023-01-06T06:28:06.834Z,101287.09
2023-01-06T06:29:11.047Z,101285.28
2023-01-06T06:30:17.373Z,101293.28
2023-01-06T06:31:23.200Z,101290.59
2023-01-06T06:32:29.907Z,101285.28
2023-01-06T06:33:41.792Z,101279.13
2023-01-06T06:34:50.864Z,101279.13
2023-01-06T06:35:57.168Z,101281.78
2023-01-06T06:36:59.677Z,101285.28
2023-01-06T06:38:01.306Z,101283.44
2023-01-06T06:39:04.982Z,101286.09
2023-01-06T06:40:10.114Z,101285.28
2023-01-06T06:41:12.559Z,101281.66
2023-01-06T06:42:16.376Z,101282.50
2023-01-06T06:43:28.093Z,101278.88
2023-01-06T06:44:40.576Z,101278.88
2023-01-06T06:45:51.221Z,101274.41
2023-01-06T06:46:53.838Z,101273.56
2023-01-06T06:47:55.993Z,101277.06
2023-01-06T06:49:00.941Z,101280.56
2023-01-06T06:50:13.117Z,101279.72
2023-01-06T06:51:25.925Z,101283.22
2023-01-06T06:52:38.552Z,101276.09
2023-01-06T06:53:41.789Z,101280.56
2023-01-06T06:54:44.334Z,101283.22
2023-01-06T06:55:47.209Z,101291.19
2023-01-06T06:56:49.828Z,101295.56
2023-01-06T06:57:51.387Z,101287.56
2023-01-06T06:58:53.973Z,101289.28
2023-01-06T06:59:55.576Z,101291.09
2023-01-06T07:01:10.085Z,101287.56
2023-01-06T07:02:11.912Z,101296.41
2023-01-06T07:03:25.169Z,101289.28
2023-01-06T07:04:37.785Z,101281.31
2023-01-06T07:05:41.693Z,101286.63
2023-01-06T07:06:44.397Z,101272.47
2023-01-06T07:07:53.912Z,101276.94
2023-01-06T07:09:06.812Z,101270.91
2023-01-06T07:10:18.372Z,101270.16
2023-01-06T07:11:32.240Z,101264.84
2023-01-06T07:12:35.971Z,101276.47
2023-01-06T07:13:39.342Z,101268.50
2023-01-06T07:14:43.719Z,101279.13
2023-01-06T07:15:56.323Z,101267.63
2023-01-06T07:17:08.911Z,101273.81
2023-01-06T07:18:20.713Z,101271.16
2023-01-06T07:19:23.213Z,101274.53
2023-01-06T07:20:26.263Z,101271.84
2023-01-06T07:21:28.752Z,101269.91
2023-01-06T07:22:30.266Z,101269.09
2023-01-06T07:23:33.427Z,101275.22
2023-01-06T07:24:44.233Z,101272.56
2023-01-06T07:25:53.128Z,101272.56
2023-01-06T07:27:06.970Z,101279.72
2023-01-06T07:28:10.290Z,101275.22
2023-01-06T07:29:11.907Z,101268.97
2023-01-06T07:30:16.091Z,101271.63
2023-01-06T07:31:17.666Z,101266.31
2023-01-06T07:32:20.238Z,101275.13
2023-01-06T07:33:32.732Z,101276.94
2023-01-06T07:34:35.513Z,101283.09
2023-01-06T07:35:47.669Z,101285.88
2023-01-06T07:36:56.196Z,101282.25
2023-01-06T07:38:03.781Z,101289.28
2023-01-06T07:39:06.568Z,101276.94
2023-01-06T07:40:12.277Z,101283.97
2023-01-06T07:41:14.815Z,101278.63
2023-01-06T07:42:17.689Z,101283.81
2023-01-06T07:43:20.973Z,101290.97
2023-01-06T07:44:32.497Z,101282.16
2023-01-06T07:45:47.495Z,101286.63
2023-01-06T07:46:49.035Z,101283.97
2023-01-06T07:48:01.643Z,101288.44
2023-01-06T07:49:14.125Z,101286.63
2023-01-06T07:50:26.719Z,101288.31
2023-01-06T07:51:39.214Z,101289.28
2023-01-06T07:52:45.908Z,101283.97
2023-01-06T07:53:56.766Z,101294.59
2023-01-06T07:55:01.143Z,101291.81
2023-01-06T07:56:06.604Z,101285.66
2023-01-06T07:57:11.616Z,101298.81
2023-01-06T07:58:14.505Z,101289.03
2023-01-06T07:59:17.068Z,101297.88
2023-01-06T08:00:20.074Z,101295.06
2023-01-06T08:01:22.637Z,101302.09
2023-01-06T08:02:26.778Z,101295.91
2023-01-06T08:03:29.357Z,101299.44
2023-01-06T08:04:31.416Z,101290.59
2023-01-06T08:05:34.074Z,101297.72
2023-01-06T08:06:35.685Z,101295.06
2023-01-06T08:07:38.326Z,101295.06
2023-01-06T08:08:41.995Z,101295.91
2023-01-06T08:09:53.533Z,101293.25
2023-01-06T08:10:59.551Z,101293.16
2023-01-06T08:12:02.058Z,101299.44
2023-01-06T08:13:04.639Z,101286.13
2023-01-06T08:14:07.553Z,101294.13
2023-01-06T08:15:11.070Z,101299.34
2023-01-06T08:16:15.480Z,101298.47
2023-01-06T08:17:17.429Z,101305.47
2023-01-06T08:18:30.031Z,101315.16
2023-01-06T08:19:43.202Z,101301.00
2023-01-06T08:20:44.710Z,101302.72
2023-01-06T08:21:47.206Z,101294.72
2023-01-06T08:22:48.767Z,101306.22
2023-01-06T08:23:51.467Z,101302.72
2023-01-06T08:24:53.036Z,101306.22
2023-01-06T08:26:02.887Z,101318.53
2023-01-06T08:27:04.438Z,101316.84
2023-01-06T08:28:06.976Z,101309.84
2023-01-06T08:29:10.865Z,101316.84
2023-01-06T08:30:13.764Z,101317.81
2023-01-06T08:31:25.361Z,101327.50
2023-01-06T08:32:29.601Z,101322.19
2023-01-06T08:33:39.739Z,101317.81
2023-01-06T08:34:52.479Z,101326.66
2023-01-06T08:35:58.757Z,101320.47
2023-01-06T08:37:02.431Z,101322.19
2023-01-06T08:38:05.346Z,101323.84
2023-01-06T08:39:07.874Z,101326.50
2023-01-06T08:40:10.545Z,101328.22
2023-01-06T08:41:16.365Z,101326.41
2023-01-06T08:42:28.904Z,101324.59
2023-01-06T08:43:44.667Z,101325.56
2023-01-06T08:44:48.797Z,101330.88
2023-01-06T08:45:50.510Z,101325.56
2023-01-06T08:46:53.052Z,101335.94
2023-01-06T08:47:54.651Z,101334.13
2023-01-06T08:48:57.799Z,101334.03
2023-01-06T08:49:59.364Z,101328.59
2023-01-06T08:51:04.294Z,101341.03
2023-01-06T08:52:15.875Z,101341.88
2023-01-06T08:53:28.419Z,101338.25
2023-01-06T08:54:38.193Z,101339.97
2023-01-06T08:55:42.256Z,101347.81
2023-01-06T08:56:44.815Z,101348.78
2023-01-06T08:57:46.615Z,101356.50
2023-01-06T08:59:01.127Z,101358.22
2023-01-06T09:00:16.614Z,101358.22
2023-01-06T09:01:31.608Z,101355.56
2023-01-06T09:02:33.345Z,101353.75
2023-01-06T09:03:38.317Z,101351.09
2023-01-06T09:04:50.933Z,101347.56
2023-01-06T09:06:03.536Z,101356.41
2023-01-06T09:07:06.155Z,101352.91
2023-01-06T09:08:08.831Z,101354.69
2023-01-06T09:09:12.954Z,101351.19
2023-01-06T09:10:15.602Z,101361.84
2023-01-06T09:11:17.712Z,101361.84
2023-01-06T09:12:20.207Z,101363.53
2023-01-06T09:13:22.757Z,101368.84
2023-01-06T09:14:24.315Z,101357.25
2023-01-06T09:15:31.973Z,101357.97
2023-01-06T09:16:36.021Z,101361.63
2023-01-06T09:17:39.215Z,101362.44
2023-01-06T09:18:51.938Z,101366.94
2023-01-06T09:19:55.443Z,101374.94
2023-01-06T09:20:58.477Z,101381.22
2023-01-06T09:22:01.964Z,101376.72
2023-01-06T09:23:04.373Z,101387.25
2023-01-06T09:24:07.573Z,101382.66
2023-01-06T09:25:21.445Z,101394.97
2023-01-06T09:26:23.936Z,101392.22
2023-01-06T09:27:26.482Z,101385.91
2023-01-06T09:28:28.003Z,101384.97
2023-01-06T09:29:30.653Z,101393.91
2023-01-06T09:30:34.486Z,101388.72
2023-01-06T09:31:37.047Z,101374.44
2023-01-06T09:32:46.399Z,101391.38
2023-01-06T09:33:57.949Z,101384.25
2023-01-06T09:35:08.129Z,101386.03
2023-01-06T09:36:10.850Z,101379.03
2023-01-06T09:37:13.458Z,101385.09
2023-01-06T09:38:16.193Z,101387.75
2023-01-06T09:39:19.563Z,101394.03
2023-01-06T09:40:27.270Z,101394.88
2023-01-06T09:41:58.225Z,101397.78
2023-01-06T09:43:20.589Z,101396.22
2023-01-06T09:44:30.038Z,101399.06
2023-01-06T09:45:39.424Z,101399.94
2023-01-06T09:46:46.247Z,101395.47
2023-01-06T09:47:52.950Z,101404.19
2023-01-06T09:49:01.454Z,101404.19
2023-01-06T09:50:10.548Z,101402.25
2023-01-06T09:51:19.540Z,101405.63
2023-01-06T09:52:29.196Z,101406.63
2023-01-06T09:53:45.456Z,101404.78
2023-01-06T09:54:54.791Z,101397.78
2023-01-06T09:56:05.355Z,101399.44
2023-01-06T09:57:23.141Z,101396.78
2023-01-06T09:58:40.605Z,101402.00
2023-01-06T09:59:50.384Z,101401.16
2023-01-06T10:00:56.462Z,101397.78
2023-01-06T10:02:02.018Z,101399.59
2023-01-06T10:03:05.609Z,101403.09
2023-01-06T10:04:11.703Z,101401.41
2023-01-06T10:05:20.967Z,101395.34
2023-01-06T10:06:32.736Z,101400.78
2023-01-06T10:07:46.883Z,101395.47
2023-01-06T10:08:59.324Z,101407.81
2023-01-06T10:10:15.465Z,101413.38
2023-01-06T10:11:27.686Z,101406.34
2023-01-06T10:12:47.198Z,101415.28
2023-01-06T10:14:06.593Z,101415.50
2023-01-06T10:15:18.008Z,101419.16
2023-01-06T10:16:33.274Z,101422.78
2023-01-06T10:17:53.041Z,101425.31
2023-01-06T10:19:03.413Z,101426.16
2023-01-06T10:20:27.861Z,101419.88
2023-01-06T10:21:37.499Z,101423.50
2023-01-06T10:22:56.934Z,101426.16
2023-01-06T10:24:18.863Z,101423.50
2023-01-06T10:25:34.009Z,101428.81
2023-01-06T10:26:44.658Z,101422.53
2023-01-06T10:28:03.227Z,101424.25
2023-01-06T10:29:13.838Z,101416.13
2023-01-06T10:30:21.033Z,101418.69
2023-01-06T10:31:28.981Z,101420.34
2023-01-06T10:32:35.424Z,101422.06
2023-01-06T10:33:42.729Z,101424.63
2023-01-06T10:34:46.292Z,101422.81
2023-01-06T10:35:50.112Z,101426.19
2023-01-06T10:37:12.027Z,101418.94
2023-01-06T10:38:18.009Z,101417.03
2023-01-06T10:39:23.599Z,101415.06
2023-01-06T10:40:29.306Z,101419.31
2023-01-06T10:41:47.847Z,101408.56
2023-01-06T10:43:00.097Z,101405.75
2023-01-06T10:44:05.149Z,101409.16
2023-01-06T10:45:14.177Z,101409.81
2023-01-06T10:46:18.201Z,101414.91
2023-01-06T10:47:28.033Z,101415.63
2023-01-06T10:48:33.199Z,101410.19
2023-01-06T10:49:36.267Z,101412.72
2023-01-06T10:50:43.558Z,101409.09
2023-01-06T10:52:02.691Z,101409.94
2023-01-06T10:53:14.742Z,101408.97
2023-01-06T10:54:22.096Z,101410.56
2023-01-06T10:55:34.519Z,101412.97
2023-01-06T10:56:38.809Z,101406.66
2023-01-06T10:57:42.974Z,101418.78
2023-01-06T10:58:49.690Z,101415.88
2023-01-06T11:00:17.821Z,101410.53
2023-01-06T11:01:25.331Z,101415.75
2023-01-06T11:02:28.991Z,101410.44
2023-01-06T11:03:34.561Z,101412.97
2023-01-06T11:04:51.455Z,101414.66
2023-01-06T11:06:02.933Z,101413.47
2023-01-06T11:07:15.619Z,101416.84
2023-01-06T11:08:19.747Z,101412.25
2023-01-06T11:09:27.222Z,101416.50
2023-01-06T11:10:32.836Z,101410.06
2023-01-06T11:11:47.910Z,101414.44
2023-01-06T11:13:03.257Z,101413.59
2023-01-06T11:14:19.148Z,101413.44
2023-01-06T11:15:39.983Z,101409.81
2023-01-06T11:16:42.663Z,101409.56
2023-01-06T11:17:46.638Z,101402.34
2023-01-06T11:18:52.169Z,101404.75
2023-01-06T11:20:08.872Z,101400.38
2023-01-06T11:21:12.805Z,101396.16
2023-01-06T11:22:33.596Z,101404.50
2023-01-06T11:23:41.981Z,101403.03
2023-01-06T11:24:55.482Z,101399.53
2023-01-06T11:26:15.916Z,101403.03
2023-01-06T11:27:19.792Z,101398.81
2023-01-06T11:28:22.870Z,101401.63
2023-01-06T11:29:30.575Z,101391.19
2023-01-06T11:30:37.573Z,101397.72
2023-01-06T11:31:40.226Z,101393.38
2023-01-06T11:32:42.286Z,101396.28
2023-01-06T11:33:51.682Z,101396.63
2023-01-06T11:34:56.865Z,101399.53
2023-01-06T11:35:59.054Z,101396.25
2023-01-06T11:37:01.909Z,101397.25
2023-01-06T11:38:03.560Z,101391.19
2023-01-06T11:39:17.892Z,101396.25
2023-01-06T11:40:32.045Z,101397.97
2023-01-06T11:41:39.196Z,101385.50
2023-01-06T11:43:51.651Z,101385.75
2023-01-06T11:44:54.584Z,101392.03
2023-01-06T11:45:58.909Z,101384.19
2023-01-06T11:47:04.682Z,101389.63
2023-01-06T11:48:15.174Z,101377.41
2023-01-06T11:49:26.658Z,101382.81
2023-01-06T11:50:28.284Z,101379.31
2023-01-06T11:51:47.430Z,101390.09
2023-01-06T11:52:59.805Z,101390.94
2023-01-06T11:54:25.752Z,101391.66
2023-01-06T11:55:39.711Z,101388.03
2023-01-06T11:56:41.990Z,101387.81
2023-01-06T11:57:51.482Z,101392.03
2023-01-06T11:59:00.998Z,101393.50
2023-01-06T12:00:32.438Z,101394.94
2023-01-06T12:01:43.090Z,101382.97
2023-01-06T12:02:52.132Z,101392.28
2023-01-06T12:04:03.005Z,101385.75
2023-01-06T12:05:15.225Z,101383.53
2023-01-06T12:06:30.326Z,101383.19
2023-01-06T12:07:44.235Z,101386.47
2023-01-06T12:08:52.192Z,101379.06
2023-01-06T12:10:01.256Z,101380.53
2023-01-06T12:11:19.576Z,101371.28
2023-01-06T12:12:26.888Z,101385.97
2023-01-06T12:13:32.250Z,101377.56
2023-01-06T12:14:38.762Z,101378.19
2023-01-06T12:15:45.114Z,101375.41
2023-01-06T12:17:07.012Z,101386.78
2023-01-06T12:18:17.409Z,101377.94
2023-01-06T12:19:23.991Z,101381.44
2023-01-06T12:20:31.620Z,101376.97
2023-01-06T12:21:36.568Z,101389.44
2023-01-06T12:22:43.832Z,101383.25
2023-01-06T12:23:46.974Z,101381.44
2023-01-06T12:24:50.700Z,101385.81
2023-01-06T12:25:56.013Z,101381.34
2023-01-06T12:27:00.769Z,101386.53
2023-01-06T12:28:06.356Z,101391.59
2023-01-06T12:29:08.719Z,101386.16
2023-01-06T12:30:18.537Z,101378.00
2023-01-06T12:31:27.661Z,101386.75
2023-01-06T12:32:38.382Z,101388.44
2023-01-06T12:33:48.528Z,101382.13
2023-01-06T12:34:53.134Z,101378.63
2023-01-06T12:36:04.925Z,101378.63
2023-01-06T12:37:17.633Z,101377.06
2023-01-06T12:38:43.900Z,101375.59
2023-01-06T12:39:56.073Z,101387.25
2023-01-06T12:41:06.290Z,101382.88
2023-01-06T12:42:26.563Z,101383.84
2023-01-06T12:43:44.428Z,101383.84
2023-01-06T12:45:03.821Z,101388.22
2023-01-06T12:46:16.292Z,101385.56
2023-01-06T12:47:25.234Z,101385.56
2023-01-06T12:48:37.942Z,101390.19
2023-01-06T12:49:57.081Z,101393.06
2023-01-06T12:51:17.288Z,101387.97
2023-01-06T12:52:33.193Z,101386.31
2023-01-06T12:53:42.448Z,101390.91
2023-01-06T12:54:52.335Z,101391.16
2023-01-06T12:56:16.311Z,101390.69